Ginys del Meteocat

Dades de l'estació automàtica el Pont de Suert

?
?
Resum diari 23:00 TU
Dades diàries de l'estació meteorològica
Temperatura mitjana 2.6 °C
Temperatura màxima 9.6 °C 12:37 TU
Temperatura mínima -0.5 °C 20:30 TU
Humitat relativa mitjana 93%
Precipitació acumulada 0.0 mm
Ratxa màxima del vent (10 m) 9.0 km/h - 346º 5:22 TU
Pressió atmosfèrica mitjana 1024.3 hPa
Irradiació solar global 6.9 MJ/m2

El tram horari està expressat en Temps Universal (TU). Cal sumar una hora en horari d'hivern i dues en horari d'estiu per passar a l'hora oficial.

el Pont de Suert

Metadades estació meteorol´gica
Municipi El Pont de Suert
Comarca Alta Ribagorça
Altitud 823 m
Data alta 14.02.1996
Estat actual Operativa
Dades de període
Període
TU
TM
°C
TX
°C
TN
°C
HRM
%
PPT
mm
VVM (10 m)
km/h
DVM (10 m)
graus
VVX (10 m)
km/h
PM
hPa
RS
W/m2
00:00 - 00:30 1.8 1.9 1.7 100 0.0 2.5 2 4.7 1026.5 0
00:30 - 01:00 1.6 1.7 1.5 100 0.0 1.4 1 4.3 1026.4 0
01:00 - 01:30 1.5 1.7 1.5 100 0.0 2.5 343 5.0 1026.2 0
01:30 - 02:00 1.7 1.8 1.7 100 0.0 2.5 352 5.4 1026.0 0
02:00 - 02:30 1.6 1.7 1.5 100 0.0 1.8 350 4.0 1025.8 0
02:30 - 03:00 1.1 1.5 0.5 100 0.0 1.4 4 4.3 1025.8 0
03:00 - 03:30 0.2 0.4 -0.2 100 0.0 2.5 10 5.8 1025.8 0
03:30 - 04:00 -0.2 0.0 -0.3 100 0.0 1.1 11 5.4 1025.7 0
04:00 - 04:30 -0.2 0.0 -0.3 100 0.0 2.9 355 6.8 1025.7 0
04:30 - 05:00 0.0 0.3 0.0 100 0.0 2.2 348 6.8 1025.7 0
05:00 - 05:30 0.3 0.6 0.0 100 0.0 3.2 332 9.0 1025.7 0
05:30 - 06:00 0.3 0.5 0.1 100 0.0 3.2 340 8.3 1025.7 0
06:00 - 06:30 0.0 0.3 -0.1 100 0.0 2.5 352 5.8 1025.8 0
06:30 - 07:00 -0.1 0.0 -0.2 100 0.0 2.2 3 5.0 1025.9 0
07:00 - 07:30 -0.3 -0.2 -0.4 100 0.0 2.9 346 5.8 1026.1 2
07:30 - 08:00 -0.2 -0.2 -0.3 100 0.0 2.9 333 6.5 1026.2 16
08:00 - 08:30 -0.1 -0.1 -0.2 100 0.0 3.2 330 7.2 1026.2 35
08:30 - 09:00 -0.1 0.2 -0.2 100 0.0 2.5 332 5.0 1026.3 93
09:00 - 09:30 0.4 0.7 0.2 100 0.0 3.6 316 6.8 1026.1 139
09:30 - 10:00 1.2 2.0 0.8 100 0.0 1.1 350 4.3 1025.6 219
10:00 - 10:30 2.2 3.3 1.8 100 0.0 1.1 145 3.6 1025.4 345
10:30 - 11:00 3.5 4.8 2.8 100 0.0 2.5 159 5.0 1024.7 421
11:00 - 11:30 5.1 5.9 4.6 98 0.0 1.8 151 4.3 1023.7 359
11:30 - 12:00 6.7 7.7 5.5 87 0.0 2.2 153 5.0 1022.5 451
12:00 - 12:30 8.6 9.4 7.7 71 0.0 1.4 175 5.0 1021.5 470
12:30 - 13:00 8.9 9.6 8.5 65 0.0 4.7 322 7.9 1020.9 375
13:00 - 13:30 9.3 9.5 9.0 58 0.0 1.1 293 4.7 1020.4 203
13:30 - 14:00 8.9 9.2 8.7 64 0.0 3.2 157 6.1 1020.3 171
14:00 - 14:30 8.5 8.9 8.3 74 0.0 2.5 161 4.3 1020.2 170
14:30 - 15:00 9.2 9.5 8.8 68 0.0 2.5 162 5.8 1019.8 219
15:00 - 15:30 9.1 9.3 8.7 71 0.0 1.8 151 4.7 1019.8 104
15:30 - 16:00 8.1 8.7 7.8 78 0.0 2.9 146 5.8 1020.2 47
16:00 - 16:30 7.3 7.8 6.2 84 0.0 0.7 121 2.5 1020.3 19
16:30 - 17:00 4.9 6.1 3.8 90 0.0 1.1 61 3.6 1021.2 7
17:00 - 17:30 3.1 3.7 2.4 94 0.0 1.1 48 5.0 1022.3 0
17:30 - 18:00 2.1 2.5 1.8 97 0.0 1.8 36 5.4 1023.0 0
18:00 - 18:30 1.4 1.8 1.1 97 0.0 1.8 13 5.0 1023.6 0
18:30 - 19:00 0.8 1.0 0.6 99 0.0 1.8 10 4.7 1024.1 0
19:00 - 19:30 0.3 0.6 0.1 99 0.0 1.1 12 3.6 1024.8 0
19:30 - 20:00 0.0 0.3 -0.3 99 0.0 1.4 18 4.7 1025.1 0
20:00 - 20:30 -0.4 -0.3 -0.5 100 0.0 2.2 4 4.7 1025.6 0
20:30 - 21:00 -0.3 -0.1 -0.5 100 0.0 1.4 12 4.0 1025.8 0
21:00 - 21:30 -0.1 0.2 -0.2 100 0.0 2.2 348 5.8 1025.8 0
21:30 - 22:00 0.4 0.5 0.3 100 0.0 2.5 4 5.0 1025.7 0
22:00 - 22:30 0.5 0.6 0.5 100 0.0 2.2 338 5.4 1025.6 0
22:30 - 23:00 0.6 0.7 0.6 100 0.0 1.1 333 4.3 1025.4 0
23:00 - 23:30 0.8 0.9 0.7 100 0.0 2.2 336 6.1 1025.4 0

Les dades en taronja només han passat un control de qualitat automàtic. Resta pendent la seva validació definitiva.